sensor_id;sensor_type;location;lat;lon;timestamp;P1;durP1;ratioP1;P2;durP2;ratioP2
18887;SDS011;9576;47.792;9.628;2022-10-31T00:01:54;16.45;;;10.45;;
18887;SDS011;9576;47.792;9.628;2022-10-31T00:04:56;18.45;;;10.63;;
18887;SDS011;9576;47.792;9.628;2022-10-31T00:07:58;20.35;;;11.23;;
18887;SDS011;9576;47.792;9.628;2022-10-31T00:11:01;17.17;;;10.48;;
18887;SDS011;9576;47.792;9.628;2022-10-31T00:14:03;26.30;;;10.88;;
18887;SDS011;9576;47.792;9.628;2022-10-31T00:17:06;21.08;;;9.90;;
18887;SDS011;9576;47.792;9.628;2022-10-31T00:20:08;30.00;;;10.02;;
18887;SDS011;9576;47.792;9.628;2022-10-31T00:23:10;23.15;;;11.02;;
18887;SDS011;9576;47.792;9.628;2022-10-31T00:26:14;18.70;;;9.27;;
18887;SDS011;9576;47.792;9.628;2022-10-31T00:29:16;18.40;;;10.47;;
18887;SDS011;9576;47.792;9.628;2022-10-31T00:32:18;22.40;;;10.85;;
18887;SDS011;9576;47.792;9.628;2022-10-31T00:35:20;23.33;;;9.85;;
18887;SDS011;9576;47.792;9.628;2022-10-31T00:38:22;23.02;;;11.38;;
18887;SDS011;9576;47.792;9.628;2022-10-31T00:41:25;13.93;;;9.70;;
18887;SDS011;9576;47.792;9.628;2022-10-31T00:44:27;21.17;;;9.25;;
18887;SDS011;9576;47.792;9.628;2022-10-31T00:47:29;24.60;;;10.52;;
18887;SDS011;9576;47.792;9.628;2022-10-31T00:50:31;18.48;;;9.80;;
18887;SDS011;9576;47.792;9.628;2022-10-31T00:53:33;17.13;;;9.43;;
18887;SDS011;9576;47.792;9.628;2022-10-31T00:56:37;20.85;;;9.82;;
18887;SDS011;9576;47.792;9.628;2022-10-31T00:59:39;25.02;;;10.07;;
18887;SDS011;9576;47.792;9.628;2022-10-31T01:02:40;35.67;;;10.07;;
18887;SDS011;9576;47.792;9.628;2022-10-31T01:05:42;31.77;;;12.45;;
18887;SDS011;9576;47.792;9.628;2022-10-31T01:08:46;27.92;;;11.82;;
18887;SDS011;9576;47.792;9.628;2022-10-31T01:11:49;31.80;;;12.30;;
18887;SDS011;9576;47.792;9.628;2022-10-31T01:14:51;32.17;;;10.90;;
18887;SDS011;9576;47.792;9.628;2022-10-31T01:17:53;39.25;;;13.65;;
18887;SDS011;9576;47.792;9.628;2022-10-31T01:21:02;46.08;;;13.70;;
18887;SDS011;9576;47.792;9.628;2022-10-31T01:24:06;46.80;;;12.90;;
18887;SDS011;9576;47.792;9.628;2022-10-31T01:27:10;31.35;;;13.15;;
18887;SDS011;9576;47.792;9.628;2022-10-31T01:30:12;39.58;;;13.55;;
18887;SDS011;9576;47.792;9.628;2022-10-31T01:33:14;20.63;;;11.38;;
18887;SDS011;9576;47.792;9.628;2022-10-31T01:36:16;30.48;;;12.10;;
18887;SDS011;9576;47.792;9.628;2022-10-31T01:39:20;36.00;;;12.27;;
18887;SDS011;9576;47.792;9.628;2022-10-31T01:42:23;26.77;;;12.70;;
18887;SDS011;9576;47.792;9.628;2022-10-31T01:45:25;28.35;;;11.82;;
18887;SDS011;9576;47.792;9.628;2022-10-31T01:48:27;27.38;;;13.32;;
18887;SDS011;9576;47.792;9.628;2022-10-31T01:51:32;25.33;;;11.73;;
18887;SDS011;9576;47.792;9.628;2022-10-31T01:54:38;50.58;;;11.80;;
18887;SDS011;9576;47.792;9.628;2022-10-31T01:57:45;20.20;;;10.90;;
18887;SDS011;9576;47.792;9.628;2022-10-31T02:00:51;30.95;;;12.00;;
18887;SDS011;9576;47.792;9.628;2022-10-31T02:03:57;26.05;;;12.10;;
18887;SDS011;9576;47.792;9.628;2022-10-31T02:07:00;31.42;;;12.73;;
18887;SDS011;9576;47.792;9.628;2022-10-31T02:10:06;28.95;;;11.95;;
18887;SDS011;9576;47.792;9.628;2022-10-31T02:13:10;38.33;;;11.20;;
18887;SDS011;9576;47.792;9.628;2022-10-31T02:19:16;28.92;;;11.25;;
18887;SDS011;9576;47.792;9.628;2022-10-31T02:22:24;41.22;;;12.65;;
18887;SDS011;9576;47.792;9.628;2022-10-31T02:25:36;22.95;;;12.63;;
18887;SDS011;9576;47.792;9.628;2022-10-31T02:29:19;36.50;;;12.60;;
18887;SDS011;9576;47.792;9.628;2022-10-31T02:32:48;33.13;;;12.10;;
18887;SDS011;9576;47.792;9.628;2022-10-31T02:36:03;44.95;;;9.77;;
18887;SDS011;9576;47.792;9.628;2022-10-31T02:39:11;51.40;;;11.25;;
18887;SDS011;9576;47.792;9.628;2022-10-31T02:42:21;57.97;;;10.40;;
18887;SDS011;9576;47.792;9.628;2022-10-31T02:45:30;36.33;;;10.27;;
18887;SDS011;9576;47.792;9.628;2022-10-31T02:48:41;44.92;;;9.82;;
18887;SDS011;9576;47.792;9.628;2022-10-31T02:51:45;44.85;;;10.52;;
18887;SDS011;9576;47.792;9.628;2022-10-31T02:54:48;24.42;;;9.18;;
18887;SDS011;9576;47.792;9.628;2022-10-31T02:57:50;20.67;;;9.32;;
18887;SDS011;9576;47.792;9.628;2022-10-31T03:01:03;38.50;;;10.43;;
18887;SDS011;9576;47.792;9.628;2022-10-31T03:07:52;20.27;;;9.60;;
18887;SDS011;9576;47.792;9.628;2022-10-31T03:11:00;22.63;;;10.77;;
18887;SDS011;9576;47.792;9.628;2022-10-31T03:14:05;19.80;;;9.70;;
18887;SDS011;9576;47.792;9.628;2022-10-31T03:17:13;22.85;;;10.20;;
18887;SDS011;9576;47.792;9.628;2022-10-31T03:20:22;18.95;;;9.98;;
18887;SDS011;9576;47.792;9.628;2022-10-31T03:23:29;29.33;;;10.98;;
18887;SDS011;9576;47.792;9.628;2022-10-31T03:26:34;35.72;;;10.70;;
18887;SDS011;9576;47.792;9.628;2022-10-31T03:29:38;22.45;;;10.77;;
18887;SDS011;9576;47.792;9.628;2022-10-31T03:32:41;24.58;;;10.55;;
18887;SDS011;9576;47.792;9.628;2022-10-31T03:35:48;21.10;;;11.30;;
18887;SDS011;9576;47.792;9.628;2022-10-31T03:38:54;23.27;;;11.02;;
18887;SDS011;9576;47.792;9.628;2022-10-31T03:41:59;28.03;;;11.40;;
18887;SDS011;9576;47.792;9.628;2022-10-31T03:45:06;34.15;;;11.45;;
18887;SDS011;9576;47.792;9.628;2022-10-31T03:48:13;28.77;;;12.23;;
18887;SDS011;9576;47.792;9.628;2022-10-31T03:51:19;29.57;;;12.73;;
18887;SDS011;9576;47.792;9.628;2022-10-31T03:54:27;21.05;;;10.93;;
18887;SDS011;9576;47.792;9.628;2022-10-31T03:57:34;25.27;;;12.85;;
18887;SDS011;9576;47.792;9.628;2022-10-31T04:00:39;38.88;;;11.93;;
18887;SDS011;9576;47.792;9.628;2022-10-31T04:03:45;42.05;;;10.57;;
18887;SDS011;9576;47.792;9.628;2022-10-31T04:06:49;34.67;;;11.95;;
18887;SDS011;9576;47.792;9.628;2022-10-31T04:09:53;21.95;;;11.35;;
18887;SDS011;9576;47.792;9.628;2022-10-31T04:12:57;40.63;;;11.68;;
18887;SDS011;9576;47.792;9.628;2022-10-31T04:16:03;25.77;;;11.00;;
18887;SDS011;9576;47.792;9.628;2022-10-31T04:19:06;54.95;;;12.05;;
18887;SDS011;9576;47.792;9.628;2022-10-31T04:22:09;57.00;;;11.18;;
18887;SDS011;9576;47.792;9.628;2022-10-31T04:25:11;53.58;;;11.02;;
18887;SDS011;9576;47.792;9.628;2022-10-31T04:28:13;25.95;;;10.02;;
18887;SDS011;9576;47.792;9.628;2022-10-31T04:31:15;53.83;;;10.93;;
18887;SDS011;9576;47.792;9.628;2022-10-31T04:34:17;41.83;;;11.05;;
18887;SDS011;9576;47.792;9.628;2022-10-31T04:37:20;40.90;;;9.88;;
18887;SDS011;9576;47.792;9.628;2022-10-31T04:40:22;84.50;;;19.48;;
18887;SDS011;9576;47.792;9.628;2022-10-31T04:43:24;50.25;;;13.00;;
18887;SDS011;9576;47.792;9.628;2022-10-31T04:46:26;62.00;;;12.65;;
18887;SDS011;9576;47.792;9.628;2022-10-31T04:49:28;49.83;;;14.35;;
18887;SDS011;9576;47.792;9.628;2022-10-31T04:52:31;21.80;;;9.85;;
18887;SDS011;9576;47.792;9.628;2022-10-31T04:55:34;66.00;;;11.13;;
18887;SDS011;9576;47.792;9.628;2022-10-31T04:58:36;41.72;;;10.93;;
18887;SDS011;9576;47.792;9.628;2022-10-31T05:01:38;26.92;;;10.50;;
18887;SDS011;9576;47.792;9.628;2022-10-31T05:04:40;26.52;;;11.30;;
18887;SDS011;9576;47.792;9.628;2022-10-31T05:07:44;41.47;;;11.52;;
18887;SDS011;9576;47.792;9.628;2022-10-31T05:10:47;56.78;;;10.57;;
18887;SDS011;9576;47.792;9.628;2022-10-31T05:13:49;37.10;;;11.98;;
18887;SDS011;9576;47.792;9.628;2022-10-31T05:16:51;88.25;;;11.60;;
18887;SDS011;9576;47.792;9.628;2022-10-31T05:19:53;41.75;;;10.77;;
18887;SDS011;9576;47.792;9.628;2022-10-31T05:22:56;76.05;;;12.90;;
18887;SDS011;9576;47.792;9.628;2022-10-31T05:25:59;63.87;;;11.13;;
18887;SDS011;9576;47.792;9.628;2022-10-31T05:29:01;48.97;;;10.88;;
18887;SDS011;9576;47.792;9.628;2022-10-31T05:32:03;21.42;;;10.98;;
18887;SDS011;9576;47.792;9.628;2022-10-31T05:35:05;46.22;;;10.93;;
18887;SDS011;9576;47.792;9.628;2022-10-31T05:38:10;52.38;;;9.90;;
18887;SDS011;9576;47.792;9.628;2022-10-31T05:41:12;16.67;;;9.65;;
18887;SDS011;9576;47.792;9.628;2022-10-31T05:44:14;39.35;;;9.98;;
18887;SDS011;9576;47.792;9.628;2022-10-31T05:47:16;35.53;;;9.98;;
18887;SDS011;9576;47.792;9.628;2022-10-31T05:50:17;21.75;;;8.75;;
18887;SDS011;9576;47.792;9.628;2022-10-31T05:53:21;19.35;;;8.95;;
18887;SDS011;9576;47.792;9.628;2022-10-31T05:56:23;33.58;;;9.82;;
18887;SDS011;9576;47.792;9.628;2022-10-31T05:59:24;44.08;;;10.02;;
18887;SDS011;9576;47.792;9.628;2022-10-31T06:02:26;47.65;;;9.45;;
18887;SDS011;9576;47.792;9.628;2022-10-31T06:05:32;25.27;;;9.98;;
18887;SDS011;9576;47.792;9.628;2022-10-31T06:08:36;31.25;;;9.10;;
18887;SDS011;9576;47.792;9.628;2022-10-31T06:11:38;19.73;;;8.55;;
18887;SDS011;9576;47.792;9.628;2022-10-31T06:14:40;42.63;;;10.57;;
18887;SDS011;9576;47.792;9.628;2022-10-31T06:17:42;25.67;;;8.80;;
18887;SDS011;9576;47.792;9.628;2022-10-31T06:20:43;26.85;;;9.30;;
18887;SDS011;9576;47.792;9.628;2022-10-31T06:23:47;27.15;;;9.13;;
18887;SDS011;9576;47.792;9.628;2022-10-31T06:26:49;31.23;;;9.57;;
18887;SDS011;9576;47.792;9.628;2022-10-31T06:29:51;34.38;;;9.27;;
18887;SDS011;9576;47.792;9.628;2022-10-31T06:32:52;21.02;;;9.15;;
18887;SDS011;9576;47.792;9.628;2022-10-31T06:35:55;27.52;;;10.60;;
18887;SDS011;9576;47.792;9.628;2022-10-31T06:38:58;41.50;;;10.73;;
18887;SDS011;9576;47.792;9.628;2022-10-31T06:42:01;34.70;;;10.43;;
18887;SDS011;9576;47.792;9.628;2022-10-31T06:45:04;41.72;;;10.35;;
18887;SDS011;9576;47.792;9.628;2022-10-31T06:48:06;46.08;;;10.05;;
18887;SDS011;9576;47.792;9.628;2022-10-31T06:51:09;39.38;;;11.13;;
18887;SDS011;9576;47.792;9.628;2022-10-31T06:54:12;30.45;;;10.65;;
18887;SDS011;9576;47.792;9.628;2022-10-31T06:57:14;46.72;;;9.90;;
18887;SDS011;9576;47.792;9.628;2022-10-31T07:00:16;30.23;;;9.60;;
18887;SDS011;9576;47.792;9.628;2022-10-31T07:03:18;22.15;;;10.02;;
18887;SDS011;9576;47.792;9.628;2022-10-31T07:06:20;26.40;;;10.52;;
18887;SDS011;9576;47.792;9.628;2022-10-31T07:09:23;38.88;;;12.63;;
18887;SDS011;9576;47.792;9.628;2022-10-31T07:12:25;42.95;;;12.68;;
18887;SDS011;9576;47.792;9.628;2022-10-31T07:15:29;42.65;;;12.18;;
18887;SDS011;9576;47.792;9.628;2022-10-31T07:18:33;29.00;;;11.68;;
18887;SDS011;9576;47.792;9.628;2022-10-31T07:21:36;19.85;;;10.93;;
18887;SDS011;9576;47.792;9.628;2022-10-31T07:24:39;34.83;;;12.18;;
18887;SDS011;9576;47.792;9.628;2022-10-31T07:27:41;37.83;;;12.32;;
18887;SDS011;9576;47.792;9.628;2022-10-31T07:30:48;28.70;;;13.10;;
18887;SDS011;9576;47.792;9.628;2022-10-31T07:33:51;20.27;;;11.95;;
18887;SDS011;9576;47.792;9.628;2022-10-31T07:36:53;30.90;;;12.13;;
18887;SDS011;9576;47.792;9.628;2022-10-31T07:39:56;29.98;;;12.30;;
18887;SDS011;9576;47.792;9.628;2022-10-31T07:42:58;46.88;;;12.88;;
18887;SDS011;9576;47.792;9.628;2022-10-31T07:46:00;52.08;;;12.10;;
18887;SDS011;9576;47.792;9.628;2022-10-31T07:49:02;36.80;;;13.15;;
18887;SDS011;9576;47.792;9.628;2022-10-31T07:52:03;76.95;;;13.75;;
18887;SDS011;9576;47.792;9.628;2022-10-31T07:55:07;29.90;;;12.60;;
18887;SDS011;9576;47.792;9.628;2022-10-31T07:58:10;31.70;;;13.17;;
18887;SDS011;9576;47.792;9.628;2022-10-31T08:01:13;74.28;;;13.75;;
18887;SDS011;9576;47.792;9.628;2022-10-31T08:04:15;36.85;;;12.38;;
18887;SDS011;9576;47.792;9.628;2022-10-31T08:07:16;141.02;;;13.65;;
18887;SDS011;9576;47.792;9.628;2022-10-31T08:10:20;54.47;;;12.70;;
18887;SDS011;9576;47.792;9.628;2022-10-31T08:13:23;42.28;;;12.25;;
18887;SDS011;9576;47.792;9.628;2022-10-31T08:16:26;32.42;;;11.65;;
18887;SDS011;9576;47.792;9.628;2022-10-31T08:19:28;19.33;;;11.88;;
18887;SDS011;9576;47.792;9.628;2022-10-31T08:22:30;41.45;;;21.80;;
18887;SDS011;9576;47.792;9.628;2022-10-31T08:25:33;53.90;;;15.85;;
18887;SDS011;9576;47.792;9.628;2022-10-31T08:28:36;44.90;;;12.27;;
18887;SDS011;9576;47.792;9.628;2022-10-31T08:31:38;59.03;;;11.65;;
18887;SDS011;9576;47.792;9.628;2022-10-31T08:34:40;71.53;;;12.07;;
18887;SDS011;9576;47.792;9.628;2022-10-31T08:37:42;51.00;;;12.43;;
18887;SDS011;9576;47.792;9.628;2022-10-31T08:40:47;181.20;;;14.10;;
18887;SDS011;9576;47.792;9.628;2022-10-31T08:43:50;22.23;;;10.52;;
18887;SDS011;9576;47.792;9.628;2022-10-31T08:46:52;35.80;;;13.15;;
18887;SDS011;9576;47.792;9.628;2022-10-31T08:49:54;39.42;;;12.32;;
18887;SDS011;9576;47.792;9.628;2022-10-31T08:52:59;22.20;;;12.52;;
18887;SDS011;9576;47.792;9.628;2022-10-31T08:56:03;43.88;;;12.75;;
18887;SDS011;9576;47.792;9.628;2022-10-31T08:59:06;36.85;;;11.70;;
18887;SDS011;9576;47.792;9.628;2022-10-31T09:02:07;39.53;;;12.60;;
18887;SDS011;9576;47.792;9.628;2022-10-31T09:05:09;21.90;;;11.23;;
18887;SDS011;9576;47.792;9.628;2022-10-31T09:08:11;17.35;;;10.57;;
18887;SDS011;9576;47.792;9.628;2022-10-31T09:11:16;16.73;;;10.35;;
18887;SDS011;9576;47.792;9.628;2022-10-31T09:14:18;16.83;;;10.85;;
18887;SDS011;9576;47.792;9.628;2022-10-31T09:17:22;21.08;;;11.65;;
18887;SDS011;9576;47.792;9.628;2022-10-31T09:20:24;21.05;;;10.82;;
18887;SDS011;9576;47.792;9.628;2022-10-31T09:23:26;34.53;;;11.70;;
18887;SDS011;9576;47.792;9.628;2022-10-31T09:26:29;27.27;;;11.57;;
18887;SDS011;9576;47.792;9.628;2022-10-31T09:29:31;18.02;;;12.20;;
18887;SDS011;9576;47.792;9.628;2022-10-31T09:32:33;25.20;;;14.30;;
18887;SDS011;9576;47.792;9.628;2022-10-31T09:35:35;37.60;;;12.82;;
18887;SDS011;9576;47.792;9.628;2022-10-31T09:38:38;19.25;;;13.30;;
18887;SDS011;9576;47.792;9.628;2022-10-31T09:41:46;26.58;;;13.13;;
18887;SDS011;9576;47.792;9.628;2022-10-31T09:45:06;23.33;;;14.02;;
18887;SDS011;9576;47.792;9.628;2022-10-31T09:48:16;21.33;;;13.77;;
18887;SDS011;9576;47.792;9.628;2022-10-31T09:51:39;21.80;;;12.95;;
18887;SDS011;9576;47.792;9.628;2022-10-31T09:54:45;17.33;;;11.63;;
18887;SDS011;9576;47.792;9.628;2022-10-31T09:57:51;28.30;;;14.15;;
18887;SDS011;9576;47.792;9.628;2022-10-31T10:00:54;30.03;;;13.53;;
18887;SDS011;9576;47.792;9.628;2022-10-31T10:04:01;25.02;;;15.13;;
18887;SDS011;9576;47.792;9.628;2022-10-31T10:07:11;22.75;;;12.95;;
18887;SDS011;9576;47.792;9.628;2022-10-31T10:10:22;23.35;;;14.77;;
18887;SDS011;9576;47.792;9.628;2022-10-31T10:13:36;21.88;;;12.98;;
18887;SDS011;9576;47.792;9.628;2022-10-31T10:16:51;34.83;;;13.52;;
18887;SDS011;9576;47.792;9.628;2022-10-31T10:20:10;27.27;;;13.27;;
18887;SDS011;9576;47.792;9.628;2022-10-31T10:23:23;22.25;;;12.40;;
18887;SDS011;9576;47.792;9.628;2022-10-31T10:26:37;22.20;;;13.15;;
18887;SDS011;9576;47.792;9.628;2022-10-31T10:32:47;25.42;;;13.57;;
18887;SDS011;9576;47.792;9.628;2022-10-31T10:35:52;21.65;;;13.30;;
18887;SDS011;9576;47.792;9.628;2022-10-31T10:38:58;25.38;;;12.95;;
18887;SDS011;9576;47.792;9.628;2022-10-31T10:42:04;23.02;;;13.85;;
18887;SDS011;9576;47.792;9.628;2022-10-31T10:45:31;27.15;;;15.38;;
18887;SDS011;9576;47.792;9.628;2022-10-31T10:48:52;22.58;;;11.52;;
18887;SDS011;9576;47.792;9.628;2022-10-31T10:52:01;22.45;;;13.70;;
18887;SDS011;9576;47.792;9.628;2022-10-31T10:55:09;34.13;;;15.02;;
18887;SDS011;9576;47.792;9.628;2022-10-31T10:58:17;29.20;;;15.20;;
18887;SDS011;9576;47.792;9.628;2022-10-31T11:01:21;29.80;;;15.32;;
18887;SDS011;9576;47.792;9.628;2022-10-31T11:04:25;24.80;;;13.25;;
18887;SDS011;9576;47.792;9.628;2022-10-31T11:07:37;26.95;;;14.85;;
18887;SDS011;9576;47.792;9.628;2022-10-31T11:10:39;30.67;;;13.93;;
18887;SDS011;9576;47.792;9.628;2022-10-31T11:13:42;24.38;;;14.43;;
18887;SDS011;9576;47.792;9.628;2022-10-31T11:16:48;23.05;;;14.27;;
18887;SDS011;9576;47.792;9.628;2022-10-31T11:20:01;25.60;;;14.30;;
18887;SDS011;9576;47.792;9.628;2022-10-31T11:23:14;26.50;;;13.90;;
18887;SDS011;9576;47.792;9.628;2022-10-31T11:26:19;25.10;;;12.75;;
18887;SDS011;9576;47.792;9.628;2022-10-31T11:29:22;25.25;;;13.77;;
18887;SDS011;9576;47.792;9.628;2022-10-31T11:32:27;20.70;;;12.70;;
18887;SDS011;9576;47.792;9.628;2022-10-31T11:35:29;17.92;;;11.90;;
18887;SDS011;9576;47.792;9.628;2022-10-31T11:38:33;28.33;;;11.82;;
18887;SDS011;9576;47.792;9.628;2022-10-31T11:41:42;26.45;;;12.02;;
18887;SDS011;9576;47.792;9.628;2022-10-31T11:44:45;24.77;;;11.88;;
18887;SDS011;9576;47.792;9.628;2022-10-31T11:47:49;19.92;;;11.50;;
18887;SDS011;9576;47.792;9.628;2022-10-31T11:50:54;20.52;;;11.82;;
18887;SDS011;9576;47.792;9.628;2022-10-31T11:53:57;16.80;;;11.00;;
18887;SDS011;9576;47.792;9.628;2022-10-31T11:57:02;20.00;;;11.35;;
18887;SDS011;9576;47.792;9.628;2022-10-31T12:00:17;23.33;;;12.85;;
18887;SDS011;9576;47.792;9.628;2022-10-31T12:07:01;21.67;;;13.38;;
18887;SDS011;9576;47.792;9.628;2022-10-31T12:10:05;27.20;;;14.82;;
18887;SDS011;9576;47.792;9.628;2022-10-31T12:13:16;24.27;;;14.45;;
18887;SDS011;9576;47.792;9.628;2022-10-31T12:16:31;26.55;;;15.30;;
18887;SDS011;9576;47.792;9.628;2022-10-31T12:19:40;28.88;;;14.60;;
18887;SDS011;9576;47.792;9.628;2022-10-31T12:22:47;31.20;;;17.45;;
18887;SDS011;9576;47.792;9.628;2022-10-31T12:25:58;25.48;;;14.82;;
18887;SDS011;9576;47.792;9.628;2022-10-31T12:29:14;22.43;;;14.37;;
18887;SDS011;9576;47.792;9.628;2022-10-31T12:32:29;26.48;;;15.98;;
18887;SDS011;9576;47.792;9.628;2022-10-31T12:35:42;36.38;;;17.67;;
18887;SDS011;9576;47.792;9.628;2022-10-31T12:38:53;31.05;;;17.13;;
18887;SDS011;9576;47.792;9.628;2022-10-31T12:42:16;31.60;;;15.50;;
18887;SDS011;9576;47.792;9.628;2022-10-31T12:45:35;29.75;;;17.10;;
18887;SDS011;9576;47.792;9.628;2022-10-31T12:52:23;29.55;;;17.23;;
18887;SDS011;9576;47.792;9.628;2022-10-31T12:55:45;35.50;;;18.75;;
18887;SDS011;9576;47.792;9.628;2022-10-31T12:58:56;29.95;;;16.25;;
18887;SDS011;9576;47.792;9.628;2022-10-31T13:02:03;25.17;;;14.85;;
18887;SDS011;9576;47.792;9.628;2022-10-31T13:05:14;31.63;;;15.60;;
18887;SDS011;9576;47.792;9.628;2022-10-31T13:08:24;27.33;;;16.67;;
18887;SDS011;9576;47.792;9.628;2022-10-31T13:11:32;25.67;;;15.43;;
18887;SDS011;9576;47.792;9.628;2022-10-31T13:14:38;33.65;;;16.70;;
18887;SDS011;9576;47.792;9.628;2022-10-31T13:17:43;28.98;;;16.92;;
18887;SDS011;9576;47.792;9.628;2022-10-31T13:20:49;29.00;;;15.52;;
18887;SDS011;9576;47.792;9.628;2022-10-31T13:23:54;25.83;;;14.60;;
18887;SDS011;9576;47.792;9.628;2022-10-31T13:27:01;23.08;;;13.40;;
18887;SDS011;9576;47.792;9.628;2022-10-31T13:30:12;28.02;;;14.50;;
18887;SDS011;9576;47.792;9.628;2022-10-31T13:33:17;21.70;;;14.88;;
18887;SDS011;9576;47.792;9.628;2022-10-31T13:36:24;32.63;;;13.98;;
18887;SDS011;9576;47.792;9.628;2022-10-31T13:39:40;23.92;;;14.05;;
18887;SDS011;9576;47.792;9.628;2022-10-31T13:43:07;20.60;;;12.45;;
18887;SDS011;9576;47.792;9.628;2022-10-31T13:46:22;27.95;;;14.48;;
18887;SDS011;9576;47.792;9.628;2022-10-31T13:49:35;31.25;;;13.52;;
18887;SDS011;9576;47.792;9.628;2022-10-31T13:52:39;25.38;;;13.70;;
18887;SDS011;9576;47.792;9.628;2022-10-31T13:55:43;22.40;;;12.38;;
18887;SDS011;9576;47.792;9.628;2022-10-31T13:59:16;23.70;;;11.68;;
18887;SDS011;9576;47.792;9.628;2022-10-31T14:02:24;21.60;;;11.88;;
18887;SDS011;9576;47.792;9.628;2022-10-31T14:05:29;26.17;;;15.05;;
18887;SDS011;9576;47.792;9.628;2022-10-31T14:11:38;21.75;;;12.00;;
18887;SDS011;9576;47.792;9.628;2022-10-31T14:14:43;22.58;;;12.18;;
18887;SDS011;9576;47.792;9.628;2022-10-31T14:17:48;22.92;;;11.65;;
18887;SDS011;9576;47.792;9.628;2022-10-31T14:20:52;20.73;;;13.23;;
18887;SDS011;9576;47.792;9.628;2022-10-31T14:23:54;24.77;;;12.05;;
18887;SDS011;9576;47.792;9.628;2022-10-31T14:26:59;27.55;;;11.63;;
18887;SDS011;9576;47.792;9.628;2022-10-31T14:30:16;21.17;;;10.73;;
18887;SDS011;9576;47.792;9.628;2022-10-31T14:33:22;48.17;;;12.45;;
18887;SDS011;9576;47.792;9.628;2022-10-31T14:36:29;23.15;;;12.10;;
18887;SDS011;9576;47.792;9.628;2022-10-31T14:39:40;20.88;;;11.27;;
18887;SDS011;9576;47.792;9.628;2022-10-31T14:42:56;20.90;;;11.55;;
18887;SDS011;9576;47.792;9.628;2022-10-31T14:46:15;24.02;;;12.13;;
18887;SDS011;9576;47.792;9.628;2022-10-31T14:49:32;20.60;;;11.10;;
18887;SDS011;9576;47.792;9.628;2022-10-31T14:52:42;22.90;;;11.48;;
18887;SDS011;9576;47.792;9.628;2022-10-31T14:55:49;23.58;;;12.40;;
18887;SDS011;9576;47.792;9.628;2022-10-31T14:58:55;26.02;;;12.05;;
18887;SDS011;9576;47.792;9.628;2022-10-31T15:02:00;18.20;;;11.52;;
18887;SDS011;9576;47.792;9.628;2022-10-31T15:05:10;18.40;;;11.60;;
18887;SDS011;9576;47.792;9.628;2022-10-31T15:08:25;19.48;;;11.43;;
18887;SDS011;9576;47.792;9.628;2022-10-31T15:11:35;18.15;;;10.95;;
18887;SDS011;9576;47.792;9.628;2022-10-31T15:14:40;26.63;;;12.48;;
18887;SDS011;9576;47.792;9.628;2022-10-31T15:17:43;23.95;;;11.93;;
18887;SDS011;9576;47.792;9.628;2022-10-31T15:20:49;23.90;;;11.40;;
18887;SDS011;9576;47.792;9.628;2022-10-31T15:23:52;29.52;;;12.07;;
18887;SDS011;9576;47.792;9.628;2022-10-31T15:26:56;30.58;;;13.32;;
18887;SDS011;9576;47.792;9.628;2022-10-31T15:29:59;21.65;;;12.52;;
18887;SDS011;9576;47.792;9.628;2022-10-31T15:33:01;22.90;;;12.23;;
18887;SDS011;9576;47.792;9.628;2022-10-31T15:36:03;25.25;;;12.93;;
18887;SDS011;9576;47.792;9.628;2022-10-31T15:39:08;30.35;;;12.65;;
18887;SDS011;9576;47.792;9.628;2022-10-31T15:42:17;42.15;;;13.80;;
18887;SDS011;9576;47.792;9.628;2022-10-31T15:45:23;24.70;;;13.05;;
18887;SDS011;9576;47.792;9.628;2022-10-31T15:48:27;32.05;;;13.50;;
18887;SDS011;9576;47.792;9.628;2022-10-31T15:51:32;21.17;;;12.45;;
18887;SDS011;9576;47.792;9.628;2022-10-31T15:54:40;23.27;;;12.52;;
18887;SDS011;9576;47.792;9.628;2022-10-31T15:57:40;33.00;;;14.27;;
18887;SDS011;9576;47.792;9.628;2022-10-31T16:00:49;19.35;;;11.85;;
18887;SDS011;9576;47.792;9.628;2022-10-31T16:04:01;20.15;;;11.10;;
18887;SDS011;9576;47.792;9.628;2022-10-31T16:07:12;32.75;;;12.90;;
18887;SDS011;9576;47.792;9.628;2022-10-31T16:10:22;22.02;;;12.70;;
18887;SDS011;9576;47.792;9.628;2022-10-31T16:13:27;29.63;;;12.27;;
18887;SDS011;9576;47.792;9.628;2022-10-31T16:19:36;23.13;;;11.43;;
18887;SDS011;9576;47.792;9.628;2022-10-31T16:22:48;25.33;;;12.15;;
18887;SDS011;9576;47.792;9.628;2022-10-31T16:25:51;20.85;;;12.05;;
18887;SDS011;9576;47.792;9.628;2022-10-31T16:28:54;37.78;;;13.68;;
18887;SDS011;9576;47.792;9.628;2022-10-31T16:31:58;21.73;;;12.82;;
18887;SDS011;9576;47.792;9.628;2022-10-31T16:35:17;36.70;;;14.70;;
18887;SDS011;9576;47.792;9.628;2022-10-31T16:38:24;21.50;;;12.48;;
18887;SDS011;9576;47.792;9.628;2022-10-31T16:41:26;30.45;;;13.07;;
18887;SDS011;9576;47.792;9.628;2022-10-31T16:44:28;22.50;;;13.55;;
18887;SDS011;9576;47.792;9.628;2022-10-31T16:47:31;35.97;;;20.13;;
18887;SDS011;9576;47.792;9.628;2022-10-31T16:50:33;44.92;;;19.92;;
18887;SDS011;9576;47.792;9.628;2022-10-31T16:53:35;30.95;;;17.67;;
18887;SDS011;9576;47.792;9.628;2022-10-31T16:56:37;53.78;;;17.08;;
18887;SDS011;9576;47.792;9.628;2022-10-31T16:59:39;38.60;;;15.77;;
18887;SDS011;9576;47.792;9.628;2022-10-31T17:02:43;31.30;;;14.85;;
18887;SDS011;9576;47.792;9.628;2022-10-31T17:05:46;29.95;;;16.75;;
18887;SDS011;9576;47.792;9.628;2022-10-31T17:08:48;32.42;;;15.77;;
18887;SDS011;9576;47.792;9.628;2022-10-31T17:11:50;33.60;;;15.88;;
18887;SDS011;9576;47.792;9.628;2022-10-31T17:14:53;45.67;;;16.55;;
18887;SDS011;9576;47.792;9.628;2022-10-31T17:17:57;26.67;;;15.23;;
18887;SDS011;9576;47.792;9.628;2022-10-31T17:20:59;27.88;;;16.00;;
18887;SDS011;9576;47.792;9.628;2022-10-31T17:24:03;30.75;;;16.13;;
18887;SDS011;9576;47.792;9.628;2022-10-31T17:27:05;50.05;;;23.75;;
18887;SDS011;9576;47.792;9.628;2022-10-31T17:30:08;35.83;;;16.30;;
18887;SDS011;9576;47.792;9.628;2022-10-31T17:33:14;50.03;;;20.23;;
18887;SDS011;9576;47.792;9.628;2022-10-31T17:36:17;50.15;;;25.80;;
18887;SDS011;9576;47.792;9.628;2022-10-31T17:39:19;45.00;;;23.33;;
18887;SDS011;9576;47.792;9.628;2022-10-31T17:42:21;46.67;;;23.73;;
18887;SDS011;9576;47.792;9.628;2022-10-31T17:45:23;47.72;;;22.05;;
18887;SDS011;9576;47.792;9.628;2022-10-31T17:48:28;52.55;;;19.67;;
18887;SDS011;9576;47.792;9.628;2022-10-31T17:51:30;34.15;;;18.73;;
18887;SDS011;9576;47.792;9.628;2022-10-31T17:54:32;35.47;;;16.48;;
18887;SDS011;9576;47.792;9.628;2022-10-31T17:57:34;32.10;;;19.13;;
18887;SDS011;9576;47.792;9.628;2022-10-31T18:00:37;34.85;;;19.10;;
18887;SDS011;9576;47.792;9.628;2022-10-31T18:03:41;41.28;;;20.95;;
18887;SDS011;9576;47.792;9.628;2022-10-31T18:06:43;44.42;;;22.95;;
18887;SDS011;9576;47.792;9.628;2022-10-31T18:09:47;52.90;;;27.27;;
18887;SDS011;9576;47.792;9.628;2022-10-31T18:12:49;37.88;;;20.77;;
18887;SDS011;9576;47.792;9.628;2022-10-31T18:15:51;46.58;;;22.35;;
18887;SDS011;9576;47.792;9.628;2022-10-31T18:18:55;59.40;;;26.58;;
18887;SDS011;9576;47.792;9.628;2022-10-31T18:22:00;58.65;;;25.70;;
18887;SDS011;9576;47.792;9.628;2022-10-31T18:25:03;54.35;;;26.77;;
18887;SDS011;9576;47.792;9.628;2022-10-31T18:28:05;47.00;;;23.55;;
18887;SDS011;9576;47.792;9.628;2022-10-31T18:31:07;57.78;;;25.08;;
18887;SDS011;9576;47.792;9.628;2022-10-31T18:34:11;48.28;;;22.85;;
18887;SDS011;9576;47.792;9.628;2022-10-31T18:37:12;61.67;;;24.70;;
18887;SDS011;9576;47.792;9.628;2022-10-31T18:40:14;60.85;;;28.65;;
18887;SDS011;9576;47.792;9.628;2022-10-31T18:43:16;88.55;;;39.45;;
18887;SDS011;9576;47.792;9.628;2022-10-31T18:46:18;83.35;;;38.83;;